SHASTA DAM (USBR) (SHA)

Elevation: 1067' · SACRAMENTO R basin · Operator: US Bureau of Reclamation

Provisional data, subject to change.
Query executed Thursday at 1:56:17   clock

Select a sensor type for a plot of data.
Note: Reservoir Flows are daily averages.

Earlier

Date RES ELE    STORAGE    RES CHG    TOC STO    ABV TOC    OUTFLOW    INFLOW    EVAP    FNF    RIV REL    PPT INC    RAIN    SPILL    DIS PWR   
 FEET   AF   AF   AF   AF   CFS   CFS   CFS   CFS   CFS   INCHES   INCHES   CFS   CFS  
12/31/2014 949.41 1867305 8366 3332904 r -1465599 r 2705 6962 39 6828 0 0.00 33.79 0 2705
01/01/2015 949.96 1876339 9034 3344542 -1468204 2892 7481 34 6238 0 0.00 33.79 0 2892
01/02/2015 950.53 1885752 9413 3356662 -1470909 2079 6854 29 5970 0 0.00 33.79 0 2079
01/03/2015 950.88 1891534 5782 3369226 -1477691 3469 6403 19 5932 0 0.00 33.79 0 3469
01/04/2015 951.29 1898337 6803 3382198 -1483860 2624 6074 20 5731 0 0.00 33.79 0 2624
01/05/2015 951.59 1903325 4988 3395694 -1492369 2979 5509 15 5333 0 0.00 33.79 0 2979
01/06/2015 951.81 1906982 3657 3410180 -1503198 2181 4054 29 5518 0 0.00 33.79 0 2181
01/07/2015 952.07 1911312 4330 3424542 -1513230 2654 4862 25 5268 0 0.00 33.79 0 2654
01/08/2015 952.34 1915828 4516 3439000 -1523172 2828 5125 20 5259 0 0.00 33.79 0 2828
01/09/2015 952.55 1919340 3512 3453830 -1534490 3081 4877 25 4698 0 0.00 33.79 0 3081
01/10/2015 952.84 1924191 4851 3468460 -1544269 3047 5508 15 5345 0 0.00 33.79 0 3047
01/11/2015 953.06 1927877 3686 3483636 -1555759 3068 4941 15 5050 0 0.00 33.79 0 3068
01/12/2015 953.34 1932589 4712 3498611 -1566022 3064 5455 15 4863 0 0.00 33.79 0 3064
01/13/2015 953.29 1931747 -842 3514992 -1583244 4159 3759 25 4660 0 0.00 33.79 0 4159
01/14/2015 953.34 1932589 842 3531378 -1598789 3504 3973 44 4615 0 0.00 33.79 0 3504
01/15/2015 953.52 1935618 3029 3547936 -1612318 2374 3946 45 4380 0 0.00 33.79 0 2374
01/16/2015 953.76 1939657 4039 3563933 -1624276 2705 4756 15 5005 0 0.33 34.12 0 2705
01/17/2015 954.09 1945220 5563 3579601 -1634381 2413 5233 15 5009 0 0.05 34.17 0 2413
01/18/2015 954.33 1949283 4063 3595804 -1646521 2676 4739 15 6061 0 0.03 34.20 0 2676
01/19/2015 954.40 1950468 1185 3611952 -1661484 4264 4876 15 5110 0 0.12 34.32 0 4264
01/20/2015 954.78 1956902 6434 3626754 -1669852 3002 6286 40 4889 0 0.00 34.32 0 3002
01/21/2015 955.06 1961649 4747 3642610 -1680960 2849 5297 55 5092 0 0.00 34.32 0 2849
01/22/2015 955.46 1968462 6813 3658564 -1690102 1750 5245 60 4825 0 0.00 34.32 0 1750
01/23/2015 955.68 1972209 3747 3674554 -1702344 3308 5247 50 4586 0 0.00 34.32 0 3308
01/24/2015 955.81 1974423 2214 3691163 -1716740 3517 4733 100 4610 0 0.00 34.32 0 3517
01/25/2015 956.17 1980572 6149 3707272 -1726700 1984 5184 100 4597 0 0.00 34.32 0 1984
01/26/2015 956.61 1988113 7541 3722307 -1734194 2219 6086 65 4565 0 0.00 34.32 0 2219
01/27/2015 956.67 1989141 1028 3738692 -1749552 4244 5014 252 4752 0 0.00 34.32 0 4244
01/28/2015 -- -- -- -- -- -- -- -- -- -- -- -- -- --
01/29/2015 -- -- -- -- -- -- -- -- -- -- -- -- -- --

Later | Latest

Warning! This data is preliminary and subject to revision.

Show SHA Map | Plot SHA Data | 1 Month SHA Data | Real-Time SHA Data | SHA Info